createdAt,value
2017-08-26T00:00:10.767Z,61.62
2017-08-26T00:00:51.233Z,61.62
2017-08-26T00:01:31.696Z,61.72
2017-08-26T00:02:12.160Z,61.72
2017-08-26T00:02:52.620Z,61.72
2017-08-26T00:03:33.075Z,61.72
2017-08-26T00:04:13.536Z,61.72
2017-08-26T00:04:54.001Z,61.62
2017-08-26T00:05:34.447Z,61.82
2017-08-26T00:06:14.887Z,61.33
2017-08-26T00:06:55.347Z,61.43
2017-08-26T00:07:35.802Z,61.43
2017-08-26T00:08:16.256Z,61.62
2017-08-26T00:08:56.756Z,61.43
2017-08-26T00:10:44.166Z,61.52
2017-08-26T00:11:24.625Z,61.33
2017-08-26T00:12:05.079Z,61.62
2017-08-26T00:12:45.535Z,61.43
2017-08-26T00:13:26.013Z,61.62
2017-08-26T00:14:06.453Z,61.33
2017-08-26T00:14:46.912Z,61.62
2017-08-26T00:15:27.365Z,61.91
2017-08-26T00:16:07.809Z,61.91
2017-08-26T00:16:48.282Z,61.91
2017-08-26T00:17:28.743Z,61.43
2017-08-26T00:18:09.192Z,61.72
2017-08-26T00:18:49.651Z,61.91
2017-08-26T00:19:30.106Z,61.82
2017-08-26T00:20:10.556Z,61.82
2017-08-26T00:20:51.017Z,62.01
2017-08-26T00:21:31.477Z,61.52
2017-08-26T00:22:11.931Z,61.72
2017-08-26T00:22:52.382Z,61.62
2017-08-26T00:23:32.832Z,61.72
2017-08-26T00:24:13.280Z,61.72
2017-08-26T00:24:53.732Z,61.52
2017-08-26T00:25:34.184Z,61.62
2017-08-26T00:26:14.651Z,61.72
2017-08-26T00:26:55.109Z,61.43
2017-08-26T00:27:35.569Z,61.72
2017-08-26T00:28:16.028Z,61.82
2017-08-26T00:28:56.487Z,61.72
2017-08-26T00:29:36.941Z,61.82
2017-08-26T00:30:17.394Z,61.52
2017-08-26T00:30:57.849Z,61.52
2017-08-26T00:31:38.318Z,61.52
2017-08-26T00:32:18.752Z,61.72
2017-08-26T00:32:59.211Z,61.52
2017-08-26T00:33:39.660Z,61.33
2017-08-26T00:34:20.102Z,61.43
2017-08-26T00:35:00.556Z,61.62
2017-08-26T00:35:41.007Z,61.62
2017-08-26T00:36:21.463Z,61.72
2017-08-26T00:37:01.927Z,61.52
2017-08-26T00:37:42.393Z,61.43
2017-08-26T00:38:22.843Z,61.43
2017-08-26T00:39:03.292Z,61.62
2017-08-26T00:39:43.756Z,61.62
2017-08-26T00:40:24.213Z,61.43
2017-08-26T00:41:04.670Z,61.62
2017-08-26T00:41:45.131Z,61.33
2017-08-26T00:42:25.587Z,61.43
2017-08-26T00:43:06.041Z,61.43
2017-08-26T00:43:46.500Z,61.72
2017-08-26T00:44:26.957Z,61.72
2017-08-26T00:45:07.411Z,61.62
2017-08-26T00:45:47.872Z,61.62
2017-08-26T00:46:28.324Z,61.52
2017-08-26T00:47:08.777Z,61.72
2017-08-26T00:47:49.233Z,61.52
2017-08-26T00:48:29.693Z,61.52
2017-08-26T00:49:10.152Z,61.52
2017-08-26T00:49:50.598Z,61.62
2017-08-26T00:50:31.054Z,61.62
2017-08-26T00:51:11.514Z,61.52
2017-08-26T00:51:51.962Z,61.72
2017-08-26T00:52:32.412Z,61.33
2017-08-26T00:53:12.861Z,61.43
2017-08-26T00:53:53.319Z,61.43
2017-08-26T00:54:33.776Z,61.52
2017-08-26T00:55:14.231Z,61.72
2017-08-26T00:55:54.682Z,61.62
2017-08-26T00:56:35.133Z,61.43
2017-08-26T00:57:15.593Z,61.62
2017-08-26T00:57:56.050Z,62.1
2017-08-26T00:58:36.505Z,61.43
2017-08-26T00:59:16.957Z,61.91
2017-08-26T00:59:57.416Z,61.43
2017-08-26T01:00:37.895Z,61.82
2017-08-26T01:01:18.346Z,61.91
2017-08-26T01:01:58.804Z,61.91
2017-08-26T01:02:39.263Z,61.72
2017-08-26T01:03:19.705Z,61.72
2017-08-26T01:04:00.154Z,61.82
2017-08-26T01:04:40.609Z,62.01
2017-08-26T01:05:21.061Z,61.82
2017-08-26T01:06:01.520Z,61.91
2017-08-26T01:06:41.973Z,61.82
2017-08-26T01:07:22.434Z,61.72
2017-08-26T01:08:02.889Z,62.01
2017-08-26T01:08:43.341Z,61.72
2017-08-26T01:09:23.799Z,62.01
2017-08-26T01:10:04.261Z,62.01
2017-08-26T01:10:44.714Z,61.91
2017-08-26T01:11:25.180Z,61.91
2017-08-26T01:12:05.638Z,62.1
2017-08-26T01:12:46.098Z,61.82
2017-08-26T01:13:26.547Z,62.01
2017-08-26T01:14:06.999Z,62.1
2017-08-26T01:14:47.456Z,61.91
2017-08-26T01:15:27.920Z,62.01
2017-08-26T01:16:08.376Z,61.72
2017-08-26T01:16:48.843Z,62.1
2017-08-26T01:17:29.302Z,62.49
2017-08-26T01:18:09.755Z,61.72
2017-08-26T01:18:50.205Z,62.01
2017-08-26T01:19:30.646Z,62.01
2017-08-26T01:20:11.118Z,61.72
2017-08-26T01:20:51.578Z,61.82
2017-08-26T01:21:32.036Z,61.82
2017-08-26T01:22:12.490Z,62.01
2017-08-26T01:22:52.940Z,62.49
2017-08-26T01:23:33.398Z,62.4
2017-08-26T01:24:13.852Z,62.1
2017-08-26T01:24:54.303Z,62.4
2017-08-26T01:25:34.759Z,62.3
2017-08-26T01:26:15.215Z,62.4
2017-08-26T01:26:55.681Z,62.3
2017-08-26T01:27:36.141Z,62.1
2017-08-26T01:28:16.600Z,62.1
2017-08-26T01:28:57.047Z,62.3
2017-08-26T01:29:37.500Z,62.3
2017-08-26T01:30:17.956Z,62.1
2017-08-26T01:30:58.417Z,62.3
2017-08-26T01:31:38.875Z,62.3
2017-08-26T01:32:19.330Z,62.2
2017-08-26T01:32:59.790Z,62.4
2017-08-26T01:33:40.251Z,62.3
2017-08-26T01:34:20.702Z,62.3
2017-08-26T01:35:01.157Z,62.3
2017-08-26T01:35:41.608Z,62.3
2017-08-26T01:36:22.053Z,62.2
2017-08-26T01:37:02.507Z,62.3
2017-08-26T01:37:42.962Z,62.4
2017-08-26T01:38:23.420Z,62.3
2017-08-26T01:39:03.914Z,62.3
2017-08-26T01:39:44.371Z,62.3
2017-08-26T01:40:24.826Z,62.37
2017-08-26T01:41:05.274Z,62.3
2017-08-26T01:41:45.731Z,62.27
2017-08-26T01:42:26.183Z,62.27
2017-08-26T01:43:06.644Z,62.17
2017-08-26T01:43:47.096Z,62.2
2017-08-26T01:44:27.555Z,62.3
2017-08-26T01:45:08.006Z,62.17
2017-08-26T01:45:48.462Z,62.3
2017-08-26T01:46:28.925Z,62.07
2017-08-26T01:47:09.382Z,62.1
2017-08-26T01:47:49.827Z,62.46
2017-08-26T01:48:30.279Z,62.27
2017-08-26T01:49:10.739Z,62.17
2017-08-26T01:49:51.196Z,62.27
2017-08-26T01:50:31.656Z,62.07
2017-08-26T01:51:12.114Z,62.3
2017-08-26T01:51:52.569Z,62.37
2017-08-26T01:52:33.027Z,62.3
2017-08-26T01:53:13.480Z,62.3
2017-08-26T01:53:53.939Z,62.3
2017-08-26T01:54:34.411Z,62.37
2017-08-26T01:55:14.857Z,62.27
2017-08-26T01:55:55.306Z,62.3
2017-08-26T01:56:35.760Z,62.27
2017-08-26T01:57:16.214Z,62.3
2017-08-26T01:57:56.670Z,62.3
2017-08-26T01:58:37.120Z,62.3
2017-08-26T01:59:17.581Z,62.59
2017-08-26T01:59:58.038Z,62.27
2017-08-26T02:00:38.493Z,62.56
2017-08-26T02:01:18.953Z,62.69
2017-08-26T02:01:59.397Z,62.3
2017-08-26T02:02:39.852Z,62.69
2017-08-26T02:03:20.302Z,62.17
2017-08-26T02:04:00.753Z,62.37
2017-08-26T02:04:41.205Z,62.37
2017-08-26T02:05:21.643Z,62.37
2017-08-26T02:07:39.583Z,62.37
2017-08-26T02:08:20.047Z,62.37
2017-08-26T02:09:00.497Z,62.27
2017-08-26T02:09:40.948Z,62.37
2017-08-26T02:10:21.399Z,62.37
2017-08-26T02:12:39.337Z,62.27
2017-08-26T02:13:19.779Z,62.17
2017-08-26T02:14:00.230Z,62.37
2017-08-26T02:14:40.697Z,62.17
2017-08-26T02:15:21.150Z,62.37
2017-08-26T02:16:01.613Z,62.17
2017-08-26T02:16:42.086Z,62.27
2017-08-26T02:17:22.531Z,62.27
2017-08-26T02:18:02.985Z,62.27
2017-08-26T02:18:43.438Z,62.17
2017-08-26T02:19:23.890Z,62.17
2017-08-26T02:20:04.358Z,62.27
2017-08-26T02:20:44.803Z,62.27
2017-08-26T02:21:25.272Z,62.17
2017-08-26T02:22:05.734Z,62.17
2017-08-26T02:22:46.196Z,62.27
2017-08-26T02:23:26.653Z,62.17
2017-08-26T02:24:07.087Z,62.27
2017-08-26T02:24:47.546Z,62.27
2017-08-26T02:25:28.004Z,62.37
2017-08-26T02:26:08.453Z,62.37
2017-08-26T02:26:48.906Z,62.56
2017-08-26T02:27:29.356Z,62.17
2017-08-26T02:28:09.806Z,62.07
2017-08-26T02:28:50.272Z,62.37
2017-08-26T02:29:30.736Z,62.17
2017-08-26T02:30:11.200Z,62.27
2017-08-26T02:30:51.638Z,62.17
2017-08-26T02:31:32.103Z,62.17
2017-08-26T02:32:12.555Z,62.37
2017-08-26T02:32:53.012Z,62.17
2017-08-26T02:33:33.469Z,62.37
2017-08-26T02:34:13.923Z,62.07
2017-08-26T02:34:54.384Z,62.17
2017-08-26T02:35:34.841Z,62.17
2017-08-26T02:36:15.300Z,62.17
2017-08-26T02:36:55.758Z,62.17
2017-08-26T02:37:36.221Z,62.27
2017-08-26T02:38:16.674Z,62.37
2017-08-26T02:38:57.139Z,62.07
2017-08-26T02:39:37.604Z,62.17
2017-08-26T02:40:18.061Z,62.17
2017-08-26T02:40:58.528Z,62.07
2017-08-26T02:41:38.985Z,62.37
2017-08-26T02:42:19.439Z,62.17
2017-08-26T02:42:59.897Z,61.98
2017-08-26T02:43:40.346Z,62.37
2017-08-26T02:44:20.861Z,61.98
2017-08-26T02:45:01.241Z,62.37
2017-08-26T02:45:41.696Z,62.27
2017-08-26T02:46:22.144Z,62.07
2017-08-26T02:47:02.600Z,62.37
2017-08-26T02:47:43.053Z,61.98
2017-08-26T02:48:23.520Z,62.37
2017-08-26T02:49:03.974Z,62.07
2017-08-26T02:49:44.434Z,61.98
2017-08-26T02:50:24.882Z,62.37
2017-08-26T02:51:05.336Z,62.07
2017-08-26T02:51:45.790Z,62.27
2017-08-26T02:52:26.248Z,62.07
2017-08-26T02:53:06.706Z,62.07
2017-08-26T02:53:47.155Z,62.07
2017-08-26T02:54:27.613Z,62.17
2017-08-26T02:55:08.070Z,62.07
2017-08-26T02:55:48.525Z,62.37
2017-08-26T02:56:28.989Z,62.07
2017-08-26T02:57:09.434Z,61.88
2017-08-26T02:57:49.903Z,62.17
2017-08-26T02:58:30.368Z,62.27
2017-08-26T02:59:10.825Z,62.07
2017-08-26T02:59:51.282Z,62.37
2017-08-26T03:00:31.733Z,62.07
2017-08-26T03:01:12.180Z,62.37
2017-08-26T03:01:52.630Z,62.37
2017-08-26T03:02:33.081Z,61.88
2017-08-26T03:03:13.536Z,62.27
2017-08-26T03:03:53.987Z,62.17
2017-08-26T03:04:34.443Z,62.37
2017-08-26T03:05:14.931Z,62.37
2017-08-26T03:05:55.386Z,62.17
2017-08-26T03:06:35.841Z,62.46
2017-08-26T03:07:16.297Z,61.98
2017-08-26T03:07:56.755Z,62.37
2017-08-26T03:08:37.227Z,62.37
2017-08-26T03:09:17.689Z,62.37
2017-08-26T03:09:58.143Z,62.27
2017-08-26T03:10:38.605Z,62.17
2017-08-26T03:11:19.059Z,62.37
2017-08-26T03:11:59.510Z,62.37
2017-08-26T03:12:39.963Z,62.37
2017-08-26T03:13:20.412Z,62.37
2017-08-26T03:14:00.870Z,62.27
2017-08-26T03:14:41.328Z,62.17
2017-08-26T03:15:21.791Z,62.17
2017-08-26T03:16:02.278Z,62.37
2017-08-26T03:16:42.735Z,62.37
2017-08-26T03:17:23.194Z,62.46
2017-08-26T03:18:03.654Z,62.46
2017-08-26T03:18:44.112Z,62.27
2017-08-26T03:19:24.549Z,62.17
2017-08-26T03:20:05.006Z,62.46
2017-08-26T03:20:45.468Z,62.17
2017-08-26T03:21:25.921Z,62.37
2017-08-26T03:22:06.375Z,62.46
2017-08-26T03:22:46.829Z,62.37
2017-08-26T03:23:27.289Z,62.27
2017-08-26T03:24:07.741Z,62.17
2017-08-26T03:24:48.186Z,62.27
2017-08-26T03:25:28.638Z,62.17
2017-08-26T03:26:09.096Z,62.46
2017-08-26T03:26:49.547Z,62.37
2017-08-26T03:27:30.017Z,62.27
2017-08-26T03:28:10.460Z,62.37
2017-08-26T03:28:50.912Z,62.37
2017-08-26T03:29:31.359Z,62.17
2017-08-26T03:30:11.802Z,62.27
2017-08-26T03:30:52.256Z,62.46
2017-08-26T03:31:32.709Z,62.17
2017-08-26T03:32:13.169Z,62.37
2017-08-26T03:32:53.630Z,61.98
2017-08-26T03:33:34.079Z,62.37
2017-08-26T03:34:14.539Z,62.17
2017-08-26T03:34:54.997Z,62.07
2017-08-26T03:35:35.449Z,62.27
2017-08-26T03:36:15.925Z,61.98
2017-08-26T03:36:56.395Z,62.17
2017-08-26T03:37:36.843Z,62.17
2017-08-26T03:38:17.306Z,62.27
2017-08-26T03:38:57.754Z,62.37
2017-08-26T03:39:38.211Z,62.37
2017-08-26T03:40:18.669Z,62.37
2017-08-26T03:40:59.133Z,62.37
2017-08-26T03:41:39.586Z,62.46
2017-08-26T03:42:20.034Z,62.17
2017-08-26T03:43:00.477Z,62.17
2017-08-26T03:43:40.934Z,61.98
2017-08-26T03:44:21.393Z,62.46
2017-08-26T03:45:01.842Z,62.37
2017-08-26T03:45:42.321Z,62.17
2017-08-26T03:46:22.752Z,62.46
2017-08-26T03:47:03.221Z,62.17
2017-08-26T03:47:43.660Z,62.37
2017-08-26T03:48:24.122Z,62.37
2017-08-26T03:49:04.588Z,62.27
2017-08-26T03:49:45.042Z,61.98
2017-08-26T03:50:25.500Z,62.17
2017-08-26T03:51:05.962Z,62.17
2017-08-26T03:51:46.419Z,62.37
2017-08-26T03:52:26.876Z,61.98
2017-08-26T03:53:07.335Z,62.27
2017-08-26T03:53:47.795Z,62.37
2017-08-26T03:54:28.240Z,62.17
2017-08-26T03:55:08.697Z,62.37
2017-08-26T03:55:49.148Z,62.37
2017-08-26T03:56:29.603Z,62.37
2017-08-26T03:57:10.049Z,62.27
2017-08-26T03:57:50.502Z,62.17
2017-08-26T03:58:30.961Z,62.27
2017-08-26T03:59:11.423Z,62.27
2017-08-26T03:59:51.880Z,62.66
2017-08-26T04:00:32.349Z,62.75
2017-08-26T04:01:12.798Z,62.46
2017-08-26T04:01:53.247Z,62.37
2017-08-26T04:02:33.694Z,62.46
2017-08-26T04:03:14.146Z,62.56
2017-08-26T04:03:54.598Z,62.56
2017-08-26T04:04:35.044Z,62.75
2017-08-26T04:05:15.496Z,62.75
2017-08-26T04:05:55.948Z,62.75
2017-08-26T04:06:36.402Z,62.75
2017-08-26T04:07:16.854Z,62.75
2017-08-26T04:07:57.303Z,62.85
2017-08-26T04:08:37.760Z,62.66
2017-08-26T04:09:18.208Z,62.75
2017-08-26T04:09:58.658Z,62.85
2017-08-26T04:10:39.116Z,62.85
2017-08-26T04:11:19.581Z,62.75
2017-08-26T04:12:00.038Z,62.85
2017-08-26T04:12:40.501Z,62.75
2017-08-26T04:13:20.961Z,62.85
2017-08-26T04:14:01.411Z,62.66
2017-08-26T04:14:41.864Z,62.75
2017-08-26T04:15:22.356Z,62.95
2017-08-26T04:16:02.781Z,62.75
2017-08-26T04:16:43.227Z,63.04
2017-08-26T04:17:23.670Z,62.95
2017-08-26T04:18:04.135Z,62.95
2017-08-26T04:18:44.593Z,63.04
2017-08-26T04:19:25.019Z,63.04
2017-08-26T04:20:05.469Z,63.04
2017-08-26T04:20:45.909Z,63.04
2017-08-26T04:21:26.363Z,62.85
2017-08-26T04:22:06.809Z,62.75
2017-08-26T04:22:47.260Z,62.95
2017-08-26T04:23:27.713Z,62.95
2017-08-26T04:24:08.174Z,62.75
2017-08-26T04:24:48.616Z,62.95
2017-08-26T04:25:29.064Z,62.85
2017-08-26T04:26:09.520Z,62.75
2017-08-26T04:26:49.969Z,62.95
2017-08-26T04:27:30.417Z,63.04
2017-08-26T04:28:10.873Z,63.04
2017-08-26T04:28:51.329Z,62.75
2017-08-26T04:29:31.790Z,62.85
2017-08-26T04:30:12.245Z,62.95
2017-08-26T04:30:52.714Z,62.85
2017-08-26T04:31:33.195Z,62.95
2017-08-26T04:32:13.628Z,62.95
2017-08-26T04:32:54.088Z,63.04
2017-08-26T04:33:34.539Z,62.85
2017-08-26T04:34:15.009Z,62.95
2017-08-26T04:34:55.451Z,62.95
2017-08-26T04:35:35.890Z,63.04
2017-08-26T04:36:16.351Z,63.14
2017-08-26T04:36:56.812Z,63.04
2017-08-26T04:37:37.274Z,63.04
2017-08-26T04:38:17.732Z,62.95
2017-08-26T04:38:58.188Z,62.95
2017-08-26T04:39:38.648Z,63.04
2017-08-26T04:40:19.097Z,63.14
2017-08-26T04:40:59.551Z,63.04
2017-08-26T04:41:40.010Z,62.95
2017-08-26T04:42:20.470Z,62.85
2017-08-26T04:43:00.918Z,63.04
2017-08-26T04:43:41.371Z,63.53
2017-08-26T04:44:21.830Z,62.95
2017-08-26T04:45:02.276Z,62.66
2017-08-26T04:45:42.725Z,62.95
2017-08-26T04:46:23.173Z,62.95
2017-08-26T04:47:03.614Z,63.04
2017-08-26T04:47:44.062Z,62.85
2017-08-26T04:48:24.521Z,63.04
2017-08-26T04:49:04.976Z,63.04
2017-08-26T04:49:45.431Z,63.04
2017-08-26T04:50:25.882Z,62.95
2017-08-26T04:51:06.370Z,63.04
2017-08-26T04:51:46.821Z,62.95
2017-08-26T04:52:27.282Z,63.04
2017-08-26T04:53:07.729Z,63.04
2017-08-26T04:53:48.182Z,63.04
2017-08-26T04:54:28.633Z,62.85
2017-08-26T04:55:09.090Z,62.95
2017-08-26T04:55:49.543Z,62.85
2017-08-26T04:56:30.007Z,63.04
2017-08-26T04:57:10.454Z,63.04
2017-08-26T04:57:50.905Z,62.85
2017-08-26T04:58:31.361Z,63.04
2017-08-26T04:59:11.822Z,63.04
2017-08-26T04:59:52.273Z,63.04
2017-08-26T05:00:32.722Z,62.95
2017-08-26T05:01:13.187Z,63.04
2017-08-26T05:01:53.646Z,63.04
2017-08-26T05:02:34.103Z,63.04
2017-08-26T05:03:14.564Z,62.95
2017-08-26T05:03:55.016Z,62.95
2017-08-26T05:04:35.482Z,62.75
2017-08-26T05:05:15.934Z,62.85
2017-08-26T05:05:56.384Z,62.95
2017-08-26T05:06:36.858Z,62.95
2017-08-26T05:07:17.356Z,62.75
2017-08-26T05:07:57.801Z,62.95
2017-08-26T05:08:38.260Z,62.95
2017-08-26T05:09:18.722Z,62.95
2017-08-26T05:09:59.180Z,62.85
2017-08-26T05:10:39.632Z,63.04
2017-08-26T05:11:20.092Z,62.95
2017-08-26T05:12:00.540Z,62.85
2017-08-26T05:12:40.986Z,62.85
2017-08-26T05:13:21.441Z,62.85
2017-08-26T05:14:01.905Z,62.85
2017-08-26T05:14:42.370Z,62.85
2017-08-26T05:15:22.819Z,62.85
2017-08-26T05:16:03.292Z,62.95
2017-08-26T05:16:43.744Z,62.95
2017-08-26T05:17:24.205Z,63.14
2017-08-26T05:18:04.660Z,62.75
2017-08-26T05:18:45.110Z,63.04
2017-08-26T05:19:25.556Z,62.85
2017-08-26T05:20:06.019Z,62.85
2017-08-26T05:20:46.483Z,62.85
2017-08-26T05:21:26.936Z,62.85
2017-08-26T05:22:07.406Z,63.04
2017-08-26T05:22:47.861Z,62.85
2017-08-26T05:23:28.317Z,62.75
2017-08-26T05:24:08.774Z,62.95
2017-08-26T05:24:49.240Z,63.04
2017-08-26T05:25:29.690Z,62.95
2017-08-26T05:26:10.141Z,62.85
2017-08-26T05:26:50.598Z,62.85
2017-08-26T05:27:31.053Z,62.85
2017-08-26T05:28:11.528Z,62.95
2017-08-26T05:28:52.001Z,62.95
2017-08-26T05:29:32.447Z,62.95
2017-08-26T05:30:12.903Z,62.95
2017-08-26T05:30:53.357Z,62.95
2017-08-26T05:31:33.811Z,63.04
2017-08-26T05:32:14.272Z,63.04
2017-08-26T05:32:54.719Z,63.04
2017-08-26T05:33:35.175Z,62.95
2017-08-26T05:34:15.637Z,63.04
2017-08-26T05:34:56.090Z,62.95
2017-08-26T05:35:36.536Z,63.04
2017-08-26T05:36:16.990Z,63.04
2017-08-26T05:36:57.465Z,62.95
2017-08-26T05:37:37.918Z,63.04
2017-08-26T05:38:18.377Z,63.04
2017-08-26T05:38:58.833Z,62.95
2017-08-26T05:39:39.286Z,63.04
2017-08-26T05:40:19.742Z,63.04
2017-08-26T05:41:00.204Z,63.04
2017-08-26T05:41:40.652Z,63.04
2017-08-26T05:42:21.110Z,63.34
2017-08-26T05:43:01.582Z,63.43
2017-08-26T05:43:42.048Z,63.24
2017-08-26T05:44:22.527Z,63.43
2017-08-26T05:45:02.981Z,63.14
2017-08-26T05:45:43.432Z,63.24
2017-08-26T05:46:23.892Z,63.43
2017-08-26T05:47:04.345Z,63.24
2017-08-26T05:47:44.782Z,62.85
2017-08-26T05:48:25.241Z,63.43
2017-08-26T05:49:05.687Z,63.04
2017-08-26T05:49:46.151Z,63.04
2017-08-26T05:50:26.606Z,63.04
2017-08-26T05:51:07.066Z,62.95
2017-08-26T05:51:47.537Z,62.85
2017-08-26T05:52:27.993Z,62.85
2017-08-26T05:53:08.450Z,62.85
2017-08-26T05:53:48.905Z,62.95
2017-08-26T05:54:29.345Z,63.24
2017-08-26T05:55:09.801Z,62.95
2017-08-26T05:55:50.255Z,63.14
2017-08-26T05:56:30.698Z,63.04
2017-08-26T05:57:11.174Z,63.04
2017-08-26T05:57:51.620Z,62.95
2017-08-26T05:58:32.073Z,62.95
2017-08-26T05:59:12.523Z,62.95
2017-08-26T05:59:52.978Z,63.04
2017-08-26T06:00:33.686Z,62.85
2017-08-26T06:01:14.379Z,62.95
2017-08-26T06:01:54.827Z,63.14
2017-08-26T06:02:35.679Z,63.04
2017-08-26T06:03:16.122Z,63.14
2017-08-26T06:03:56.576Z,62.95
2017-08-26T06:04:37.029Z,63.14
2017-08-26T06:05:17.476Z,63.04
2017-08-26T06:05:57.928Z,62.95
2017-08-26T06:06:38.371Z,63.04
2017-08-26T06:07:18.798Z,63.04
2017-08-26T06:07:59.258Z,62.75
2017-08-26T06:08:39.713Z,62.95
2017-08-26T06:09:20.173Z,62.75
2017-08-26T06:10:00.634Z,62.75
2017-08-26T06:10:41.099Z,62.75
2017-08-26T06:11:21.573Z,62.75
2017-08-26T06:12:02.015Z,62.75
2017-08-26T06:12:42.478Z,62.95
2017-08-26T06:13:22.920Z,63.04
2017-08-26T06:14:03.396Z,62.75
2017-08-26T06:14:43.847Z,62.95
2017-08-26T06:15:24.311Z,62.85
2017-08-26T06:16:04.796Z,62.95
2017-08-26T06:16:45.248Z,62.95
2017-08-26T06:17:25.716Z,62.66
2017-08-26T06:18:06.176Z,62.75
2017-08-26T06:18:46.637Z,62.75
2017-08-26T06:19:27.095Z,62.75
2017-08-26T06:20:07.556Z,62.66
2017-08-26T06:20:48.015Z,62.75
2017-08-26T06:21:28.500Z,62.66
2017-08-26T06:22:08.956Z,62.75
2017-08-26T06:22:49.406Z,62.66
2017-08-26T06:23:29.867Z,62.66
2017-08-26T06:24:10.325Z,62.85
2017-08-26T06:24:50.775Z,62.75
2017-08-26T06:25:31.232Z,62.75
2017-08-26T06:26:11.681Z,62.75
2017-08-26T06:26:52.138Z,62.75
2017-08-26T06:27:32.593Z,62.85
2017-08-26T06:28:13.046Z,62.75
2017-08-26T06:28:53.510Z,62.85
2017-08-26T06:29:33.993Z,62.75
2017-08-26T06:30:14.440Z,62.66
2017-08-26T06:30:54.911Z,62.75
2017-08-26T06:31:35.370Z,62.75
2017-08-26T06:32:15.812Z,62.85
2017-08-26T06:32:56.269Z,62.75
2017-08-26T06:33:36.734Z,62.75
2017-08-26T06:34:17.193Z,62.75
2017-08-26T06:34:57.646Z,62.85
2017-08-26T06:35:38.103Z,62.88
2017-08-26T06:36:18.565Z,62.85
2017-08-26T06:36:59.018Z,62.75
2017-08-26T06:37:39.474Z,62.66
2017-08-26T06:38:19.937Z,62.75
2017-08-26T06:39:00.392Z,62.75
2017-08-26T06:39:40.832Z,62.56
2017-08-26T06:40:21.281Z,62.59
2017-08-26T06:41:01.740Z,62.49
2017-08-26T06:41:42.179Z,62.4
2017-08-26T06:42:22.718Z,62.49
2017-08-26T06:43:03.175Z,62.49
2017-08-26T06:43:43.633Z,62.59
2017-08-26T06:44:24.093Z,62.4
2017-08-26T06:45:04.548Z,62.4
2017-08-26T06:45:44.999Z,62.79
2017-08-26T06:46:25.460Z,62.59
2017-08-26T06:47:05.914Z,62.49
2017-08-26T06:47:46.363Z,62.49
2017-08-26T06:48:26.806Z,62.59
2017-08-26T06:49:07.258Z,62.4
2017-08-26T06:49:47.708Z,62.49
2017-08-26T06:50:28.165Z,62.79
2017-08-26T06:51:08.627Z,62.79
2017-08-26T06:51:49.086Z,62.79
2017-08-26T06:52:29.545Z,63.07
2017-08-26T06:53:10.008Z,62.69
2017-08-26T06:53:50.469Z,62.88
2017-08-26T06:54:30.916Z,62.79
2017-08-26T06:55:11.376Z,62.88
2017-08-26T06:55:51.846Z,62.79
2017-08-26T06:56:32.288Z,62.79
2017-08-26T06:57:12.748Z,63.17
2017-08-26T06:57:53.220Z,62.98
2017-08-26T06:58:33.677Z,63.07
2017-08-26T06:59:14.133Z,62.88
2017-08-26T06:59:54.592Z,63.07
2017-08-26T07:00:35.046Z,63.4
2017-08-26T07:01:15.499Z,63.46
2017-08-26T07:01:55.950Z,63.4
2017-08-26T07:02:36.430Z,63.37
2017-08-26T07:03:16.860Z,63.2
2017-08-26T07:03:57.398Z,63.46
2017-08-26T07:04:37.804Z,63.49
2017-08-26T07:05:18.263Z,63.17
2017-08-26T07:05:58.719Z,63.59
2017-08-26T07:06:39.271Z,63.46
2017-08-26T07:07:19.734Z,63.2
2017-08-26T07:08:00.183Z,63.17
2017-08-26T07:08:40.638Z,63.56
2017-08-26T07:09:21.070Z,63.59
2017-08-26T07:10:01.508Z,63.3
2017-08-26T07:10:41.948Z,62.72
2017-08-26T07:11:22.405Z,62.91
2017-08-26T07:12:02.846Z,63.01
2017-08-26T07:12:43.301Z,63.1
2017-08-26T07:13:23.754Z,62.91
2017-08-26T07:14:04.218Z,63.01
2017-08-26T07:14:44.681Z,63.3
2017-08-26T07:15:25.130Z,63.1
2017-08-26T07:16:05.608Z,63.01
2017-08-26T07:16:46.072Z,63.01
2017-08-26T07:17:26.530Z,63.2
2017-08-26T07:18:06.987Z,63.01
2017-08-26T07:18:47.444Z,62.95
2017-08-26T07:19:27.904Z,62.85
2017-08-26T07:20:08.365Z,62.75
2017-08-26T07:20:48.800Z,62.95
2017-08-26T07:21:29.255Z,62.85
2017-08-26T07:22:09.719Z,62.75
2017-08-26T07:22:50.173Z,63.04
2017-08-26T07:23:30.618Z,62.55
2017-08-26T07:24:11.083Z,62.55
2017-08-26T07:24:51.550Z,62.46
2017-08-26T07:25:32.020Z,62.85
2017-08-26T07:26:12.474Z,62.55
2017-08-26T07:26:52.933Z,62.75
2017-08-26T07:27:33.433Z,62.65
2017-08-26T07:28:13.851Z,62.55
2017-08-26T07:28:54.291Z,62.55
2017-08-26T07:29:34.828Z,62.01
2017-08-26T07:30:15.177Z,62.29
2017-08-26T07:30:55.613Z,62.29
2017-08-26T07:31:36.093Z,62.29
2017-08-26T07:32:16.547Z,62.68
2017-08-26T07:32:56.994Z,62.49
2017-08-26T07:33:37.454Z,62.29
2017-08-26T07:34:17.915Z,62.39
2017-08-26T07:34:58.353Z,62.88
2017-08-26T07:35:38.861Z,62.68
2017-08-26T07:36:19.245Z,62.29
2017-08-26T07:36:59.672Z,62.39
2017-08-26T07:37:40.127Z,62.49
2017-08-26T07:38:20.586Z,62.19
2017-08-26T07:39:01.041Z,62.49
2017-08-26T07:39:41.515Z,62.49
2017-08-26T07:40:21.981Z,62.01
2017-08-26T07:41:02.512Z,62.1
2017-08-26T07:41:42.986Z,62.1
2017-08-26T07:42:23.446Z,62.01
2017-08-26T07:43:03.890Z,61.91
2017-08-26T07:43:44.381Z,62.01
2017-08-26T07:44:24.797Z,61.42
2017-08-26T07:45:05.244Z,61.45
2017-08-26T07:45:45.679Z,61.61
2017-08-26T07:46:26.127Z,61.52
2017-08-26T07:47:06.575Z,61.84
2017-08-26T07:47:47.028Z,61.94
2017-08-26T07:48:27.480Z,62.04
2017-08-26T07:49:07.944Z,61.45
2017-08-26T07:49:48.416Z,61.74
2017-08-26T07:51:35.945Z,61.84
2017-08-26T07:52:16.428Z,61.55
2017-08-26T07:52:56.874Z,61.65
2017-08-26T07:53:37.333Z,61.35
2017-08-26T07:54:17.788Z,61.07
2017-08-26T07:54:58.242Z,61.07
2017-08-26T07:55:38.687Z,61.07
2017-08-26T07:56:19.163Z,61.25
2017-08-26T07:56:59.589Z,61.16
2017-08-26T07:57:40.058Z,61.16
2017-08-26T07:58:20.484Z,61.35
2017-08-26T07:59:00.934Z,61.35
2017-08-26T07:59:41.380Z,61.25
2017-08-26T08:00:21.859Z,61.07
2017-08-26T08:01:02.296Z,61.07
2017-08-26T08:01:42.748Z,60.87
2017-08-26T08:02:23.193Z,60.97
2017-08-26T08:03:03.642Z,60.87
2017-08-26T08:03:44.078Z,60.87
2017-08-26T08:04:24.540Z,61.07
2017-08-26T08:05:04.961Z,60.97
2017-08-26T08:05:45.440Z,60.97
2017-08-26T08:06:25.863Z,60.77
2017-08-26T08:07:06.306Z,61.07
2017-08-26T08:07:46.781Z,60.87
2017-08-26T08:08:27.228Z,60.87
2017-08-26T08:09:08.551Z,60.77
2017-08-26T08:09:49.006Z,61.07
2017-08-26T08:10:29.458Z,60.97
2017-08-26T08:11:09.917Z,60.97
2017-08-26T08:11:50.362Z,60.97
2017-08-26T08:12:30.821Z,61.07
2017-08-26T08:13:11.288Z,61.07
2017-08-26T08:13:51.719Z,60.87
2017-08-26T08:15:44.347Z,60.77
2017-08-26T08:16:24.800Z,60.87
2017-08-26T08:17:05.254Z,60.77
2017-08-26T08:17:45.703Z,60.97
2017-08-26T08:18:26.154Z,60.68
2017-08-26T08:19:06.627Z,60.97
2017-08-26T08:19:47.068Z,60.97
2017-08-26T08:20:27.510Z,60.77
2017-08-26T08:21:07.946Z,60.87
2017-08-26T08:21:48.390Z,60.87
2017-08-26T08:22:28.856Z,60.77
2017-08-26T08:23:09.292Z,60.87
2017-08-26T08:23:49.748Z,60.97
2017-08-26T08:24:30.195Z,60.58
2017-08-26T08:25:10.682Z,60.58
2017-08-26T08:25:51.135Z,60.28
2017-08-26T08:26:31.543Z,60.38
2017-08-26T08:27:11.970Z,60.28
2017-08-26T08:27:52.381Z,60.38
2017-08-26T08:28:32.815Z,60.48
2017-08-26T08:30:50.691Z,59.9
2017-08-26T08:31:31.143Z,60.09
2017-08-26T08:32:11.600Z,60.19
2017-08-26T08:32:52.070Z,60.12
2017-08-26T08:33:32.518Z,60.09
2017-08-26T08:34:12.985Z,60.19
2017-08-26T08:34:53.484Z,60
2017-08-26T08:35:33.922Z,59.9
2017-08-26T08:36:14.473Z,60.28
2017-08-26T08:36:54.931Z,60
2017-08-26T08:37:35.341Z,60
2017-08-26T08:38:15.764Z,60.02
2017-08-26T08:38:56.175Z,59.83
2017-08-26T08:39:36.596Z,60.02
2017-08-26T08:40:17.025Z,60
2017-08-26T08:40:57.523Z,60
2017-08-26T08:41:37.933Z,60.41
2017-08-26T08:42:18.385Z,59.51
2017-08-26T08:42:58.808Z,60.28
2017-08-26T08:43:39.202Z,60.38
2017-08-26T08:44:19.606Z,60.28
2017-08-26T08:45:00.043Z,60.19
2017-08-26T08:45:40.445Z,60.31
2017-08-26T08:46:20.858Z,59.83
2017-08-26T08:47:01.276Z,59.83
2017-08-26T08:47:41.718Z,60.02
2017-08-26T08:48:22.116Z,59.83
2017-08-26T08:49:02.542Z,59.92
2017-08-26T08:49:42.979Z,59.64
2017-08-26T08:50:23.418Z,59.74
2017-08-26T08:51:03.904Z,59.54